Time;durP1;ratioP1;P1;durP2;ratioP2;P2;SDS_P1;SDS_P2;PMS_P1;PMS_P2;Temp;Humidity;BMP_temperature;BMP_pressure;BME280_temperature;BME280_humidity;BME280_pressure;Samples;Min_cycle;Max_cycle;Signal;HPM_P1;HPM_P2
2023/04/14 00:02:24;;;;;;;15.00;13.50;;;;;;;11.12;100.00;99701.89;105956;1255;73687;-84
2023/04/14 00:04:53;;;;;;;16.00;12.90;;;;;;;11.14;100.00;99700.85;105728;1256;64527;-85
2023/04/14 00:07:21;;;;;;;15.40;13.80;;;;;;;11.12;100.00;99705.35;105928;1254;72385;-83
2023/04/14 00:09:52;;;;;;;18.30;15.10;;;;;;;11.10;100.00;99707.66;105864;1254;63157;-82
2023/04/14 00:12:23;;;;;;;13.90;12.50;;;;;;;11.08;100.00;99709.33;105853;1254;61341;-84
2023/04/14 00:14:51;;;;;;;16.60;13.80;;;;;;;11.10;100.00;99712.36;105798;1257;75088;-85
2023/04/14 00:17:20;;;;;;;14.70;13.00;;;;;;;11.13;100.00;99715.09;105794;1254;63632;-84
2023/04/14 00:19:48;;;;;;;17.70;14.50;;;;;;;11.17;100.00;99715.84;105928;1254;73644;-83
2023/04/14 00:22:17;;;;;;;16.30;13.40;;;;;;;11.21;100.00;99716.77;105914;1254;62960;-85
2023/04/14 00:24:46;;;;;;;15.10;13.50;;;;;;;11.24;100.00;99718.48;106018;1254;61023;-85
2023/04/14 00:27:14;;;;;;;13.90;12.50;;;;;;;11.24;100.00;99716.52;105958;1257;74554;-85
2023/04/14 00:29:42;;;;;;;16.90;13.90;;;;;;;11.26;100.00;99719.17;105858;1253;64886;-85
2023/04/14 00:32:12;;;;;;;15.80;13.30;;;;;;;11.29;100.00;99717.06;106175;1255;73365;-83
2023/04/14 00:34:40;;;;;;;14.10;12.70;;;;;;;11.30;100.00;99719.36;109052;1252;62938;-80
2023/04/14 00:37:09;;;;;;;14.70;12.60;;;;;;;11.31;100.00;99718.61;107628;1254;59992;-81
2023/04/14 00:39:37;;;;;;;15.80;13.30;;;;;;;11.29;100.00;99714.23;106417;1254;73865;-84
2023/04/14 00:42:05;;;;;;;17.00;13.30;;;;;;;11.28;100.00;99720.75;105932;1257;62750;-86
2023/04/14 00:44:34;;;;;;;15.70;13.00;;;;;;;11.27;100.00;99717.02;105837;1254;73816;-85
2023/04/14 00:47:03;;;;;;;14.30;12.10;;;;;;;11.28;100.00;99717.99;105750;1254;62958;-84
2023/04/14 00:49:31;;;;;;;16.20;12.20;;;;;;;11.28;100.00;99715.39;106023;1254;61401;-84
2023/04/14 00:52:00;;;;;;;12.90;11.70;;;;;;;11.28;100.00;99717.80;105726;1254;73626;-84
2023/04/14 00:54:30;;;;;;;16.70;12.20;;;;;;;11.28;100.00;99718.13;105952;1254;65396;-83
2023/04/14 00:56:59;;;;;;;13.40;11.80;;;;;;;11.29;100.00;99718.23;107032;1257;72357;-82
2023/04/14 00:59:28;;;;;;;14.10;12.70;;;;;;;11.30;100.00;99716.10;106752;1256;61958;-82
2023/04/14 01:01:58;;;;;;;12.30;11.00;;;;;;;11.26;100.00;99715.70;106219;1256;61326;-83
2023/04/14 01:04:27;;;;;;;16.00;13.10;;;;;;;11.22;100.00;99717.60;106150;1253;73934;-84
2023/04/14 01:07:18;;;;;;;15.40;12.00;;;;;;;11.22;100.00;99714.41;105804;1256;64606;-85
2023/04/14 01:09:46;;;;;;;12.90;11.60;;;;;;;11.24;100.00;99714.43;106388;1254;73904;-83
2023/04/14 01:12:29;;;;;;;12.60;11.20;;;;;;;11.25;100.00;99715.77;106186;1256;61991;-84
2023/04/14 01:15:14;;;;;;;12.80;11.50;;;;;;;11.25;100.00;99716.14;105927;1254;61615;-88
2023/04/14 01:17:50;;;;;;;13.40;11.90;;;;;;;11.26;100.00;99716.88;106019;1256;74899;-84
2023/04/14 01:20:42;;;;;;;13.00;11.70;;;;;;;11.28;100.00;99719.51;106006;1257;65273;-82
2023/04/14 01:23:19;;;;;;;12.50;11.30;;;;;;;11.24;100.00;99723.18;106107;1254;72723;-85
2023/04/14 01:26:06;;;;;;;13.90;11.40;;;;;;;11.25;100.00;99722.92;105698;1254;62673;-85
2023/04/14 01:29:02;;;;;;;12.20;11.10;;;;;;;11.27;100.00;99722.64;105797;1257;60506;-84
2023/04/14 01:31:34;;;;;;;14.00;12.20;;;;;;;11.25;100.00;99721.20;106847;1254;73727;-83
2023/04/14 01:34:30;;;;;;;14.10;12.30;;;;;;;11.27;100.00;99716.52;107648;1252;64748;-82
2023/04/14 01:37:29;;;;;;;12.40;11.30;;;;;;;11.24;100.00;99720.39;109112;1253;72296;-80
2023/04/14 01:40:10;;;;;;;14.30;12.30;;;;;;;11.29;100.00;99723.13;107518;1253;61951;-80
2023/04/14 01:42:42;;;;;;;11.50;10.40;;;;;;;11.33;100.00;99725.13;107456;1256;60364;-81
2023/04/14 01:45:15;;;;;;;14.30;11.80;;;;;;;11.32;100.00;99728.89;106213;1254;73790;-85
2023/04/14 01:47:44;;;;;;;12.90;10.20;;;;;;;11.29;100.00;99725.25;105727;1254;64635;-84
2023/04/14 01:50:12;;;;;;;13.40;12.10;;;;;;;11.20;100.00;99725.59;105719;1257;73594;-84
2023/04/14 02:06:30;;;;;;;14.20;11.20;;;;;;;11.31;100.00;99721.23;103544;1285;613544;-86
2023/04/14 02:09:00;;;;;;;12.80;11.50;;;;;;;11.39;100.00;99724.31;104998;1268;109549;-88
2023/04/14 02:11:30;;;;;;;16.40;11.50;;;;;;;11.38;100.00;99726.48;105214;1270;60285;-87
2023/04/14 02:13:59;;;;;;;12.80;11.50;;;;;;;11.35;100.00;99729.13;105689;1264;72229;-89
2023/04/14 02:16:29;;;;;;;12.90;11.60;;;;;;;11.35;100.00;99735.44;105186;1264;65144;-90
2023/04/14 02:18:57;;;;;;;14.70;11.60;;;;;;;11.31;100.00;99734.71;105158;1269;73699;-89
2023/04/14 02:21:27;;;;;;;13.10;11.70;;;;;;;11.27;100.00;99733.50;105615;1260;62648;-90
2023/04/14 02:23:56;;;;;;;15.40;11.50;;;;;;;11.25;100.00;99737.45;105723;1257;60130;-87
2023/04/14 02:26:26;;;;;;;12.90;11.60;;;;;;;11.21;100.00;99741.46;105848;1259;73171;-87
2023/04/14 02:29:06;;;;;;;16.10;11.60;;;;;;;11.16;100.00;99745.63;105884;1254;64826;-88
2023/04/14 02:31:35;;;;;;;16.00;12.30;;;;;;;11.11;100.00;99748.52;105868;1257;74380;-88
2023/04/14 02:34:04;;;;;;;12.60;11.30;;;;;;;11.05;100.00;99753.31;105783;1257;61969;-87
2023/04/14 02:36:45;;;;;;;14.10;10.20;;;;;;;11.01;100.00;99755.19;105942;1253;61293;-85
2023/04/14 02:39:19;;;;;;;12.30;11.00;;;;;;;10.95;100.00;99759.11;106467;1251;74152;-86
2023/04/14 02:42:04;;;;;;;11.60;10.40;;;;;;;10.93;100.00;99756.13;106125;1253;63767;-88
2023/04/14 02:44:35;;;;;;;11.90;10.30;;;;;;;10.92;100.00;99758.17;105905;1256;72322;-90
2023/04/14 02:47:06;;;;;;;17.00;10.70;;;;;;;10.90;100.00;99756.35;106025;1255;61686;-90
2023/04/14 02:49:41;;;;;;;14.20;10.70;;;;;;;10.87;100.00;99757.67;105959;1255;61312;-89
2023/04/14 02:52:11;;;;;;;12.40;10.90;;;;;;;10.83;100.00;99758.85;106022;1252;72920;-92
2023/04/14 02:54:41;;;;;;;12.70;10.60;;;;;;;10.85;100.00;99758.89;105949;1256;65076;-88
2023/04/14 02:57:09;;;;;;;13.20;11.20;;;;;;;10.86;100.00;99759.83;106075;1251;73548;-87
2023/04/14 02:59:41;;;;;;;12.40;10.00;;;;;;;10.85;100.00;99766.24;105918;1256;63048;-90
2023/04/14 03:02:11;;;;;;;11.20;9.90;;;;;;;10.80;100.00;99763.23;105918;1251;61094;-89
2023/04/14 03:04:44;;;;;;;12.40;10.40;;;;;;;10.77;100.00;99765.55;105958;1251;74424;-90
2023/04/14 03:07:18;;;;;;;13.30;11.20;;;;;;;10.79;100.00;99770.30;105878;1256;64797;-87
2023/04/14 03:09:49;;;;;;;13.60;10.50;;;;;;;10.82;100.00;99772.58;105839;1251;73988;-89
2023/04/14 03:12:19;;;;;;;15.80;10.10;;;;;;;10.82;100.00;99777.13;106165;1251;61862;-86
2023/04/14 03:14:48;;;;;;;12.50;10.60;;;;;;;10.81;100.00;99776.85;106005;1256;61323;-88
2023/04/14 03:17:19;;;;;;;15.60;11.60;;;;;;;10.77;100.00;99780.02;105793;1259;74320;-88
2023/04/14 03:19:49;;;;;;;14.80;10.50;;;;;;;10.73;100.00;99779.46;106341;1257;63811;-89
2023/04/14 03:22:19;;;;;;;11.80;10.70;;;;;;;10.73;100.00;99774.60;106327;1257;74060;-88
2023/04/14 03:24:49;;;;;;;11.50;10.20;;;;;;;10.67;100.00;99779.05;106428;1251;61989;-88
2023/04/14 03:27:24;;;;;;;16.70;11.00;;;;;;;10.60;100.00;99780.43;106629;1256;61026;-88
2023/04/14 03:29:55;;;;;;;13.90;10.60;;;;;;;10.54;100.00;99778.43;106294;1251;73969;-87
2023/04/14 03:32:34;;;;;;;11.50;10.40;;;;;;;10.52;100.00;99785.23;106166;1251;63808;-87
2023/04/14 03:35:05;;;;;;;12.50;11.20;;;;;;;10.52;100.00;99781.93;105847;1251;73859;-87
2023/04/14 03:37:36;;;;;;;12.00;10.70;;;;;;;10.53;100.00;99779.91;105942;1254;62377;-87
2023/04/14 03:40:07;;;;;;;14.40;12.10;;;;;;;10.55;100.00;99790.61;106061;1251;60444;-87
2023/04/14 03:42:38;;;;;;;17.90;12.60;;;;;;;10.57;100.00;99795.31;105958;1251;73851;-87
2023/04/14 03:45:07;;;;;;;14.20;10.50;;;;;;;10.60;100.00;99804.41;105872;1251;64912;-87
2023/04/14 03:47:37;;;;;;;12.40;10.80;;;;;;;10.60;100.00;99809.64;106029;1251;73339;-87
2023/04/14 03:50:08;;;;;;;12.30;10.00;;;;;;;10.53;100.00;99810.64;106063;1251;60697;-89
2023/04/14 03:52:37;;;;;;;12.70;11.40;;;;;;;10.48;100.00;99814.05;106272;1251;60129;-89
2023/04/14 03:55:05;;;;;;;13.60;10.60;;;;;;;10.45;100.00;99813.55;105896;1253;74035;-87
2023/04/14 03:57:37;;;;;;;13.50;12.10;;;;;;;10.40;100.00;99814.61;105986;1256;62573;-89
2023/04/14 04:00:08;;;;;;;12.70;10.60;;;;;;;10.36;100.00;99817.09;105755;1251;73633;-88
2023/04/14 04:03:04;;;;;;;10.80;9.60;;;;;;;10.38;100.00;99816.13;105828;1256;61920;-89
2023/04/14 04:05:34;;;;;;;12.70;10.00;;;;;;;10.44;100.00;99823.58;106030;1251;61468;-87
2023/04/14 04:08:02;;;;;;;14.30;10.50;;;;;;;10.45;100.00;99822.28;105783;1253;72473;-88
2023/04/14 04:10:32;;;;;;;10.80;9.70;;;;;;;10.47;100.00;99827.71;106064;1256;64831;-85
2023/04/14 04:13:01;;;;;;;10.50;9.50;;;;;;;10.49;100.00;99828.29;106467;1256;73636;-85
2023/04/14 04:15:35;;;;;;;11.30;9.60;;;;;;;10.53;100.00;99831.82;105889;1257;62883;-89
2023/04/14 04:18:06;;;;;;;10.00;9.00;;;;;;;10.53;100.00;99832.16;105932;1251;59965;-89
2023/04/14 04:20:36;;;;;;;11.30;8.30;;;;;;;10.51;100.00;99836.85;105981;1251;72961;-88
2023/04/14 04:23:05;;;;;;;10.10;9.10;;;;;;;10.54;100.00;99842.06;106273;1251;64914;-90
2023/04/14 04:25:35;;;;;;;9.00;7.70;;;;;;;10.54;100.00;99840.98;106090;1254;73376;-87
2023/04/14 04:28:13;;;;;;;9.70;8.80;;;;;;;10.57;100.00;99841.33;105979;1256;61985;-90
2023/04/14 04:30:44;;;;;;;9.70;8.70;;;;;;;10.61;100.00;99841.79;105923;1251;61358;-90
2023/04/14 04:33:14;;;;;;;9.60;8.60;;;;;;;10.62;100.00;99841.31;106300;1256;74044;-90
2023/04/14 04:35:43;;;;;;;10.70;8.90;;;;;;;10.61;100.00;99844.23;105999;1254;64860;-89
2023/04/14 04:38:12;;;;;;;13.40;9.00;;;;;;;10.60;100.00;99848.95;106044;1251;73566;-91
2023/04/14 04:40:42;;;;;;;11.00;9.40;;;;;;;10.63;100.00;99853.48;105925;1251;62855;-90
2023/04/14 04:43:22;;;;;;;11.40;9.40;;;;;;;10.63;100.00;99852.13;105846;1251;60221;-88
2023/04/14 04:45:57;;;;;;;9.70;8.40;;;;;;;10.63;100.00;99852.08;106058;1256;73831;-89
2023/04/14 04:48:26;;;;;;;10.70;7.90;;;;;;;10.62;100.00;99851.30;106108;1255;64546;-88
2023/04/14 04:50:54;;;;;;;10.80;8.60;;;;;;;10.59;100.00;99858.70;106534;1251;73821;-88
2023/04/14 04:53:22;;;;;;;10.50;8.40;;;;;;;10.56;100.00;99857.66;106368;1251;62139;-87
2023/04/14 04:55:53;;;;;;;10.00;8.40;;;;;;;10.54;100.00;99861.61;106401;1251;60327;-87
2023/04/14 04:58:21;;;;;;;14.20;7.80;;;;;;;10.56;100.00;99860.41;106469;1253;74085;-87
2023/04/14 05:00:49;;;;;;;10.50;7.60;;;;;;;10.60;100.00;99862.45;106769;1251;64723;-88
2023/04/14 05:03:18;;;;;;;11.90;6.80;;;;;;;10.61;100.00;99862.89;106586;1251;73392;-89
2023/04/14 05:05:47;;;;;;;14.40;7.60;;;;;;;10.60;100.00;99863.69;106684;1253;62006;-89
2023/04/14 05:08:15;;;;;;;7.50;6.90;;;;;;;10.64;100.00;99860.41;106677;1252;61880;-89
2023/04/14 05:10:44;;;;;;;7.40;6.70;;;;;;;10.70;100.00;99859.98;106488;1251;74006;-90
2023/04/14 05:13:12;;;;;;;7.40;5.70;;;;;;;10.75;100.00;99858.21;106253;1255;64929;-90
2023/04/14 05:15:41;;;;;;;8.10;6.30;;;;;;;10.79;100.00;99862.63;106311;1251;73472;-88
2023/04/14 05:18:13;;;;;;;7.30;6.20;;;;;;;10.79;100.00;99863.48;106240;1251;61987;-89
2023/04/14 05:20:42;;;;;;;8.00;6.00;;;;;;;10.77;100.00;99864.68;107470;1251;60307;-89
2023/04/14 05:23:12;;;;;;;10.00;6.50;;;;;;;10.77;100.00;99871.49;107770;1251;72743;-89
2023/04/14 05:25:44;;;;;;;9.20;6.50;;;;;;;10.79;100.00;99870.46;107721;1251;64963;-89
2023/04/14 05:28:15;;;;;;;6.90;5.70;;;;;;;10.83;100.00;99872.52;107683;1251;72716;-89
2023/04/14 05:30:44;;;;;;;9.00;6.30;;;;;;;10.86;100.00;99875.79;107883;1251;61723;-89
2023/04/14 05:33:14;;;;;;;8.40;6.70;;;;;;;10.90;100.00;99879.98;108743;1251;60014;-87
2023/04/14 05:35:46;;;;;;;8.30;5.90;;;;;;;10.96;100.00;99885.49;109275;1251;73397;-88
2023/04/14 05:38:15;;;;;;;14.00;7.90;;;;;;;11.00;100.00;99885.56;109653;1251;63782;-87
2023/04/14 05:40:47;;;;;;;9.30;6.80;;;;;;;11.02;100.00;99887.51;109279;1251;72610;-86
2023/04/14 05:43:21;;;;;;;8.80;6.90;;;;;;;11.02;100.00;99887.38;108275;1251;60943;-88
2023/04/14 05:45:50;;;;;;;8.00;7.00;;;;;;;11.03;100.00;99890.98;107483;1251;59998;-85
2023/04/14 05:48:23;;;;;;;8.20;6.20;;;;;;;11.02;100.00;99896.63;106799;1252;74184;-89
2023/04/14 05:50:52;;;;;;;10.50;6.10;;;;;;;11.00;100.00;99897.64;106224;1253;64507;-89
2023/04/14 05:53:21;;;;;;;7.60;6.50;;;;;;;10.97;100.00;99899.25;106043;1251;72457;-88
2023/04/14 05:55:52;;;;;;;9.90;7.10;;;;;;;10.91;100.00;99900.04;106356;1251;61947;-87
2023/04/14 05:58:25;;;;;;;;;;;;;;;10.83;100.00;99899.38;107008;1251;60331;-88
2023/04/14 06:00:54;;;;;;;9.30;6.10;;;;;;;10.80;100.00;99899.63;106932;1252;71978;-89
2023/04/14 06:03:30;;;;;;;10.30;7.00;;;;;;;10.79;100.00;99905.83;106640;1251;64257;-86
2023/04/14 06:06:00;;;;;;;13.20;7.00;;;;;;;10.78;100.00;99908.13;106583;1251;72595;-86
2023/04/14 06:08:29;;;;;;;7.60;6.40;;;;;;;10.79;100.00;99911.21;106152;1251;63005;-89
2023/04/14 06:10:58;;;;;;;6.40;5.50;;;;;;;10.81;100.00;99912.34;106288;1251;61385;-89
2023/04/14 06:13:29;;;;;;;10.90;6.60;;;;;;;10.81;100.00;99913.34;107489;1253;73168;-90
2023/04/14 06:16:02;;;;;;;7.50;6.00;;;;;;;10.86;100.00;99921.02;107802;1251;64885;-87
2023/04/14 06:18:34;;;;;;;6.80;6.20;;;;;;;10.91;100.00;99927.20;107603;1251;71636;-89
2023/04/14 06:21:03;;;;;;;7.60;6.30;;;;;;;10.90;100.00;99931.39;107129;1251;62823;-88
2023/04/14 06:23:32;;;;;;;8.90;5.90;;;;;;;10.87;100.00;99933.55;107148;1253;60428;-88
2023/04/14 06:26:01;;;;;;;8.50;6.10;;;;;;;10.86;100.00;99931.04;107612;1251;74542;-89
2023/04/14 06:28:32;;;;;;;10.80;7.10;;;;;;;10.89;100.00;99933.96;107254;1251;64808;-86
2023/04/14 06:31:00;;;;;;;9.60;6.80;;;;;;;10.91;100.00;99932.45;107158;1251;72617;-88
2023/04/14 06:33:30;;;;;;;8.70;7.20;;;;;;;10.91;100.00;99935.00;106966;1256;61944;-87
2023/04/14 06:36:00;;;;;;;7.40;6.70;;;;;;;10.90;100.00;99939.46;106784;1251;61054;-88
2023/04/14 06:38:30;;;;;;;8.00;6.90;;;;;;;10.86;100.00;99945.35;106696;1255;73745;-86
2023/04/14 06:40:59;;;;;;;7.20;6.50;;;;;;;10.80;100.00;99943.14;106846;1256;63476;-87
2023/04/14 06:43:28;;;;;;;7.60;6.10;;;;;;;10.74;100.00;99939.92;107438;1251;73295;-86
2023/04/14 06:45:57;;;;;;;9.70;7.20;;;;;;;10.69;100.00;99943.95;107212;1251;62079;-89
2023/04/14 06:48:26;;;;;;;8.60;7.30;;;;;;;10.68;100.00;99945.40;106953;1256;60368;-86
2023/04/14 06:50:56;;;;;;;9.00;7.20;;;;;;;10.71;100.00;99949.74;107025;1251;74595;-87
2023/04/14 06:53:25;;;;;;;9.40;7.20;;;;;;;10.76;100.00;99953.95;106463;1251;65234;-86
2023/04/14 06:56:00;;;;;;;8.10;6.70;;;;;;;10.78;100.00;99956.95;106643;1253;73624;-90
2023/04/14 06:58:30;;;;;;;7.00;5.70;;;;;;;10.77;100.00;99954.52;106745;1253;62721;-90
2023/04/14 07:01:00;;;;;;;9.80;7.50;;;;;;;10.79;100.00;99961.92;106419;1251;61539;-89
2023/04/14 07:03:30;;;;;;;9.40;6.90;;;;;;;10.79;100.00;99968.72;106967;1256;74855;-89
2023/04/14 07:06:03;;;;;;;8.00;6.80;;;;;;;10.80;100.00;99969.41;107233;1251;63580;-87
2023/04/14 07:08:35;;;;;;;8.60;6.90;;;;;;;10.81;100.00;99970.70;108637;1251;73600;-88
2023/04/14 07:11:09;;;;;;;9.10;6.80;;;;;;;10.82;100.00;99973.66;108526;1251;63418;-87
2023/04/14 07:13:40;;;;;;;9.60;7.10;;;;;;;10.78;100.00;99977.70;107927;1251;61934;-88
2023/04/14 07:16:09;;;;;;;9.30;7.70;;;;;;;10.73;100.00;99986.54;107863;1251;74278;-89
2023/04/14 07:18:45;;;;;;;9.30;6.50;;;;;;;10.66;100.00;99984.58;108192;1251;64796;-86
2023/04/14 07:21:15;;;;;;;9.70;6.30;;;;;;;10.63;100.00;99989.85;108868;1254;71605;-88
2023/04/14 07:23:48;;;;;;;8.50;5.70;;;;;;;10.65;100.00;99993.34;107930;1251;62077;-89
2023/04/14 07:26:17;;;;;;;10.20;6.30;;;;;;;10.68;100.00;99996.84;108060;1256;60690;-90
2023/04/14 07:28:46;;;;;;;5.80;5.10;;;;;;;10.68;100.00;99993.16;107771;1251;74565;-88
2023/04/14 07:31:21;;;;;;;5.90;5.40;;;;;;;10.70;100.00;99994.54;108190;1251;63652;-89
2023/04/14 07:33:52;;;;;;;8.10;5.60;;;;;;;10.71;100.00;99993.48;108197;1251;74761;-88
2023/04/14 07:36:21;;;;;;;9.40;5.30;;;;;;;10.70;100.00;99996.86;108187;1256;61315;-90
2023/04/14 07:38:52;;;;;;;8.10;5.60;;;;;;;10.66;100.00;99996.75;107739;1251;60425;-88
2023/04/14 07:41:22;;;;;;;6.60;5.40;;;;;;;10.62;100.00;99997.26;107875;1253;73858;-86
2023/04/14 07:43:54;;;;;;;6.60;4.70;;;;;;;10.61;100.00;99998.37;108030;1251;63551;-88
2023/04/14 07:46:23;;;;;;;7.20;5.50;;;;;;;10.58;100.00;99997.30;107208;1252;72113;-89
2023/04/14 07:48:52;;;;;;;6.00;5.30;;;;;;;10.60;100.00;99996.20;107156;1251;62163;-90
2023/04/14 07:51:22;;;;;;;4.80;4.20;;;;;;;10.57;100.00;99996.52;106883;1251;61316;-89
2023/04/14 07:53:51;;;;;;;6.60;4.90;;;;;;;10.53;100.00;99999.73;107959;1251;74683;-89
2023/04/14 07:56:21;;;;;;;7.60;5.00;;;;;;;10.54;100.00;100000.95;108106;1251;65106;-89
2023/04/14 07:58:50;;;;;;;5.00;4.50;;;;;;;10.58;100.00;100002.21;108183;1256;73606;-88
2023/04/14 08:01:19;;;;;;;5.10;4.60;;;;;;;10.65;100.00;100004.05;108334;1251;62971;-90
2023/04/14 08:03:49;;;;;;;5.00;4.50;;;;;;;10.71;100.00;100006.42;108658;1251;60018;-88
2023/04/14 08:06:19;;;;;;;4.80;4.30;;;;;;;10.79;100.00;100010.91;108420;1251;73668;-88
2023/04/14 08:08:52;;;;;;;6.90;4.90;;;;;;;10.87;100.00;100012.44;108279;1251;64807;-89
2023/04/14 08:11:22;;;;;;;6.00;5.40;;;;;;;10.91;100.00;100016.16;108094;1251;72445;-89
2023/04/14 08:13:51;;;;;;;7.70;4.90;;;;;;;10.90;100.00;100016.08;107978;1251;60575;-88
2023/04/14 08:16:26;;;;;;;9.70;7.60;;;;;;;10.88;100.00;100018.63;108247;1251;60412;-90
2023/04/14 08:18:55;;;;;;;7.00;5.10;;;;;;;10.89;100.00;100020.19;107961;1256;74864;-88
2023/04/14 08:21:26;;;;;;;6.50;5.80;;;;;;;10.91;100.00;100025.45;107865;1251;63206;-87
2023/04/14 08:23:58;;;;;;;5.90;5.30;;;;;;;10.93;100.00;100024.77;108341;1251;73675;-88
2023/04/14 08:26:30;;;;;;;7.10;5.90;;;;;;;10.95;100.00;100023.77;108371;1251;61880;-89
2023/04/14 08:29:01;;;;;;;5.40;4.40;;;;;;;10.98;100.00;100024.23;108010;1251;60337;-89
2023/04/14 08:31:35;;;;;;;5.60;5.10;;;;;;;11.03;100.00;100025.51;108491;1251;74735;-89
2023/04/14 08:34:05;;;;;;;5.10;4.60;;;;;;;11.12;100.00;100022.54;108020;1251;63642;-91
2023/04/14 08:36:35;;;;;;;6.50;5.30;;;;;;;11.26;100.00;100024.16;107681;1251;72644;-86
2023/04/14 08:39:04;;;;;;;4.90;4.30;;;;;;;11.37;100.00;100030.58;107201;1252;61657;-89
2023/04/14 08:41:34;;;;;;;6.30;4.50;;;;;;;11.42;100.00;100032.44;107407;1251;61381;-88
2023/04/14 08:44:03;;;;;;;5.40;4.90;;;;;;;11.47;100.00;100035.80;107291;1251;73784;-89
2023/04/14 08:46:35;;;;;;;6.20;5.40;;;;;;;11.48;100.00;100033.25;106951;1251;65401;-90
2023/04/14 08:49:05;;;;;;;8.60;5.60;;;;;;;11.48;100.00;100034.13;107141;1251;72645;-89
2023/04/14 08:51:34;;;;;;;6.70;5.30;;;;;;;11.49;100.00;100035.83;106866;1251;61214;-88
2023/04/14 08:54:10;;;;;;;5.80;4.70;;;;;;;11.43;100.00;100037.64;107820;1251;60269;-86
2023/04/14 08:56:40;;;;;;;7.10;5.30;;;;;;;11.36;100.00;100040.73;107932;1251;74918;-89
2023/04/14 08:59:09;;;;;;;5.10;4.60;;;;;;;11.31;100.00;100040.60;108014;1251;64622;-88
2023/04/14 09:01:40;;;;;;;6.20;5.50;;;;;;;11.28;100.00;100033.34;108066;1251;73578;-89
2023/04/14 09:04:13;;;;;;;8.60;6.60;;;;;;;11.27;100.00;100038.61;107775;1257;62520;-89
2023/04/14 09:06:43;;;;;;;6.20;5.00;;;;;;;11.32;100.00;100037.41;107807;1252;60271;-89
2023/04/14 09:09:13;;;;;;;5.90;5.30;;;;;;;11.33;100.00;100036.60;107443;1253;75073;-87
2023/04/14 09:11:41;;;;;;;7.70;6.10;;;;;;;11.32;100.00;100041.05;108080;1257;64915;-89
2023/04/14 09:14:10;;;;;;;7.20;6.40;;;;;;;11.31;100.00;100041.87;107535;1252;72433;-88
2023/04/14 09:16:43;;;;;;;6.60;5.80;;;;;;;11.31;100.00;100046.02;107679;1253;60641;-89
2023/04/14 09:19:14;;;;;;;7.40;5.50;;;;;;;11.36;100.00;100048.82;107469;1252;60163;-88
2023/04/14 09:21:50;;;;;;;6.30;5.40;;;;;;;11.41;100.00;100050.00;107707;1253;74414;-87
2023/04/14 09:24:28;;;;;;;6.50;5.20;;;;;;;11.52;100.00;100050.24;107597;1253;63806;-88
2023/04/14 09:27:04;;;;;;;7.20;3.90;;;;;;;11.67;100.00;100050.91;108107;1253;73616;-87
2023/04/14 09:29:33;;;;;;;4.30;3.50;;;;;;;11.78;100.00;100057.26;108262;1253;61518;-91
2023/04/14 09:32:11;;;;;;;4.30;3.00;;;;;;;11.86;100.00;100063.35;107687;1253;61288;-88
2023/04/14 09:34:52;;;;;;;3.80;3.40;;;;;;;11.88;100.00;100067.48;107546;1254;74686;-88
2023/04/14 09:37:25;;;;;;;;;;;;;;;11.79;100.00;100069.11;108765;1253;63545;-89
2023/04/14 09:40:08;;;;;;;3.60;2.80;;;;;;;11.75;100.00;100072.73;108781;1253;72609;-88
2023/04/14 09:42:41;;;;;;;2.60;2.40;;;;;;;11.74;100.00;100078.83;109273;1253;61721;-89
2023/04/14 09:45:11;;;;;;;3.50;3.20;;;;;;;11.76;100.00;100077.38;108602;1253;59979;-90
2023/04/14 09:47:45;;;;;;;3.60;3.00;;;;;;;11.79;100.00;100079.30;108920;1253;74449;-89
2023/04/14 09:51:17;;;;;;;3.90;3.20;;;;;;;11.83;100.00;100082.63;108633;1253;64311;-90
2023/04/14 09:53:46;;;;;;;3.40;3.10;;;;;;;11.92;100.00;100086.95;107799;1260;72563;-89
2023/04/14 09:56:16;;;;;;;2.90;2.60;;;;;;;12.00;100.00;100088.29;107382;1259;63386;-89
2023/04/14 09:59:00;;;;;;;3.60;2.50;;;;;;;12.10;100.00;100094.23;107615;1260;59222;-90
2023/04/14 10:01:32;;;;;;;3.30;3.00;;;;;;;12.17;100.00;100101.56;107650;1260;73857;-89
2023/04/14 10:04:03;;;;;;;5.40;3.60;;;;;;;12.21;100.00;100098.96;108501;1260;65259;-88
2023/04/14 10:06:36;;;;;;;7.80;5.20;;;;;;;12.18;100.00;100102.15;107807;1260;72642;-88
2023/04/14 10:09:05;;;;;;;5.00;3.70;;;;;;;12.15;100.00;100102.25;107064;1262;61765;-88
2023/04/14 10:11:35;;;;;;;4.90;3.40;;;;;;;12.12;100.00;100107.02;107030;1263;60407;-87
2023/04/14 10:14:05;;;;;;;3.80;3.50;;;;;;;12.08;100.00;100108.33;106761;1260;72687;-87
2023/04/14 10:16:34;;;;;;;5.00;3.70;;;;;;;12.07;100.00;100111.59;106829;1260;64649;-88
2023/04/14 10:19:03;;;;;;;6.60;3.80;;;;;;;12.03;100.00;100110.83;106908;1259;73648;-91
2023/04/14 10:21:36;;;;;;;4.30;3.30;;;;;;;12.00;100.00;100111.75;106897;1259;61947;-89
2023/04/14 10:24:05;;;;;;;5.70;3.60;;;;;;;12.00;100.00;100113.87;106826;1263;61559;-89
2023/04/14 10:26:35;;;;;;;3.40;3.10;;;;;;;12.03;100.00;100117.83;107346;1260;73847;-86
2023/04/14 10:29:05;;;;;;;3.50;3.20;;;;;;;12.07;100.00;100121.40;107148;1260;65346;-88
2023/04/14 10:31:38;;;;;;;4.40;3.50;;;;;;;12.10;100.00;100125.77;106959;1253;72632;-90
2023/04/14 10:34:10;;;;;;;3.90;3.20;;;;;;;12.11;100.00;100128.16;106881;1257;60525;-89
2023/04/14 10:36:40;;;;;;;4.40;3.90;;;;;;;12.12;100.00;100130.02;106292;1253;61002;-91
2023/04/14 10:39:10;;;;;;;6.00;4.40;;;;;;;12.11;100.00;100136.16;106166;1257;74499;-89
2023/04/14 10:41:49;;;;;;;4.60;4.00;;;;;;;12.13;100.00;100136.77;105945;1253;65399;-89
2023/04/14 10:44:28;;;;;;;4.40;4.00;;;;;;;12.16;100.00;100138.95;106093;1258;72938;-89
2023/04/14 10:47:00;;;;;;;3.90;3.60;;;;;;;12.18;100.00;100142.14;106049;1253;62124;-88
2023/04/14 10:49:32;;;;;;;3.60;3.30;;;;;;;12.16;100.00;100141.77;106297;1253;59882;-87
2023/04/14 10:52:05;;;;;;;4.80;3.80;;;;;;;12.14;100.00;100144.20;106534;1252;75252;-85
2023/04/14 10:54:59;;;;;;;6.30;3.60;;;;;;;12.10;100.00;100151.11;106045;1253;63815;-88
2023/04/14 10:57:29;;;;;;;4.90;4.20;;;;;;;12.07;100.00;100150.52;106305;1253;73699;-89
2023/04/14 11:00:02;;;;;;;4.40;4.00;;;;;;;12.00;100.00;100159.23;106172;1258;61980;-86
2023/04/14 11:02:33;;;;;;;4.90;4.00;;;;;;;11.95;100.00;100163.27;106363;1259;60390;-88
2023/04/14 11:05:13;;;;;;;4.70;3.60;;;;;;;11.92;100.00;100162.66;107051;1253;73808;-87
2023/04/14 11:07:47;;;;;;;8.10;4.40;;;;;;;11.87;100.00;100170.88;106473;1253;63754;-87
2023/04/14 11:10:16;;;;;;;4.50;4.10;;;;;;;11.82;100.00;100172.58;106254;1254;73695;-90
2023/04/14 11:12:46;;;;;;;4.40;4.00;;;;;;;11.81;100.00;100175.32;106092;1253;63774;-87
2023/04/14 11:15:16;;;;;;;5.70;4.30;;;;;;;11.86;100.00;100181.25;106048;1257;60374;-87
2023/04/14 11:17:44;;;;;;;4.70;4.00;;;;;;;11.95;100.00;100177.09;106309;1253;75018;-85
2023/04/14 11:20:20;;;;;;;6.30;4.60;;;;;;;12.03;100.00;100180.21;106381;1253;63774;-88
2023/04/14 11:22:52;;;;;;;7.10;6.30;;;;;;;12.10;100.00;100183.61;106198;1253;73664;-87
2023/04/14 11:25:21;;;;;;;4.70;4.20;;;;;;;12.06;100.00;100187.01;106133;1253;63089;-90
2023/04/14 11:27:52;;;;;;;5.90;4.50;;;;;;;11.98;100.00;100192.83;106175;1257;60858;-88
2023/04/14 11:30:22;;;;;;;5.50;4.20;;;;;;;11.87;100.00;100197.50;105919;1257;75095;-87
2023/04/14 11:32:52;;;;;;;5.40;4.80;;;;;;;11.74;100.00;100195.77;105940;1258;64588;-86
2023/04/14 11:35:23;;;;;;;4.60;4.20;;;;;;;11.63;100.00;100196.39;106001;1253;72591;-87
2023/04/14 11:37:55;;;;;;;7.30;5.10;;;;;;;11.51;100.00;100199.16;105902;1259;61799;-88
2023/04/14 11:40:25;;;;;;;5.40;3.90;;;;;;;11.43;100.00;100204.09;105791;1253;60507;-88
2023/04/14 11:42:55;;;;;;;5.70;4.40;;;;;;;11.39;100.00;100209.41;105865;1258;73266;-87
2023/04/14 11:45:28;;;;;;;4.80;4.30;;;;;;;11.42;100.00;100211.65;105880;1259;63520;-86